createdAt,value
2023-05-09T00:07:42.520Z,2.50
2023-05-09T00:17:46.015Z,2.30
2023-05-09T00:27:50.731Z,2.53
2023-05-09T00:37:54.075Z,2.40
2023-05-09T00:47:58.902Z,2.25
2023-05-09T00:58:02.302Z,2.42
2023-05-09T01:08:11.641Z,2.65
2023-05-09T01:18:21.656Z,2.75
2023-05-09T01:28:37.724Z,3.15
2023-05-09T01:38:44.948Z,3.78
2023-05-09T01:48:49.216Z,3.40
2023-05-09T01:58:55.109Z,3.22
2023-05-09T02:08:59.371Z,3.50
2023-05-09T02:19:03.927Z,4.00
2023-05-09T02:29:09.213Z,4.03
2023-05-09T02:39:13.853Z,4.35
2023-05-09T02:49:31.611Z,4.70
2023-05-09T02:59:37.554Z,3.97
2023-05-09T03:09:41.301Z,3.95
2023-05-09T03:19:46.266Z,4.30
2023-05-09T03:29:49.491Z,3.97
2023-05-09T03:39:55.850Z,3.22
2023-05-09T03:49:59.400Z,3.00
2023-05-09T04:00:05.408Z,3.15
2023-05-09T04:10:16.933Z,2.50
2023-05-09T04:20:22.042Z,2.92
2023-05-09T04:30:27.068Z,3.85
2023-05-09T04:40:33.232Z,3.20
2023-05-09T04:50:37.431Z,2.70
2023-05-09T05:00:42.097Z,2.80
2023-05-09T05:10:45.518Z,2.35
2023-05-09T05:20:52.420Z,2.28
2023-05-09T05:30:55.802Z,2.50
2023-05-09T05:41:00.357Z,2.03
2023-05-09T05:51:06.495Z,2.00
2023-05-09T06:01:13.805Z,2.40
2023-05-09T06:11:17.310Z,1.80
2023-05-09T06:21:21.982Z,1.77
2023-05-09T06:31:25.903Z,1.52
2023-05-09T06:41:30.492Z,1.80
2023-05-09T06:51:33.778Z,1.77
2023-05-09T07:01:38.375Z,1.58
2023-05-09T07:11:41.622Z,1.30
2023-05-09T07:21:46.195Z,1.27
2023-05-09T07:31:49.437Z,1.50
2023-05-09T07:41:53.986Z,1.60
2023-05-09T07:51:57.253Z,1.65
2023-05-09T08:02:01.933Z,1.58
2023-05-09T08:12:06.062Z,1.70
2023-05-09T08:22:10.645Z,1.65
2023-05-09T08:32:14.321Z,1.70
2023-05-09T08:42:25.523Z,2.10
2023-05-09T08:52:30.975Z,1.90
2023-05-09T09:02:37.981Z,1.95
2023-05-09T09:12:42.444Z,2.17
2023-05-09T09:22:49.495Z,2.33
2023-05-09T09:32:52.698Z,1.80
2023-05-09T09:42:57.321Z,2.40
2023-05-09T09:53:01.367Z,2.00
2023-05-09T10:03:06.130Z,1.83
2023-05-09T10:13:11.921Z,1.60
2023-05-09T10:23:17.589Z,1.80
2023-05-09T10:33:25.547Z,1.58
2023-05-09T10:43:32.212Z,1.80
2023-05-09T10:53:43.682Z,1.90
2023-05-09T11:03:58.578Z,2.10
2023-05-09T11:14:01.988Z,1.60
2023-05-09T11:24:19.872Z,1.30
2023-05-09T11:34:23.900Z,1.33
2023-05-09T11:44:31.732Z,1.05
2023-05-09T11:54:38.398Z,0.95
2023-05-09T12:04:44.218Z,1.00
2023-05-09T12:14:48.223Z,1.00
2023-05-09T12:24:52.902Z,1.40
2023-05-09T12:34:56.251Z,1.25
2023-05-09T12:45:02.473Z,1.52
2023-05-09T12:55:09.865Z,1.65
2023-05-09T13:05:18.688Z,1.90
2023-05-09T13:15:23.516Z,2.65
2023-05-09T13:25:28.081Z,2.40
2023-05-09T13:35:31.289Z,2.20
2023-05-09T13:45:36.063Z,2.35
2023-05-09T13:55:39.395Z,2.35
2023-05-09T14:05:44.026Z,2.88
2023-05-09T14:15:47.251Z,3.50
2023-05-09T14:25:51.812Z,3.83
2023-05-09T14:35:55.027Z,4.47
2023-05-09T14:46:00.986Z,4.47
2023-05-09T14:56:04.250Z,4.93
2023-05-09T15:06:09.024Z,4.00
2023-05-09T15:16:12.260Z,4.38
2023-05-09T15:26:17.033Z,4.35
2023-05-09T15:36:20.297Z,5.60
2023-05-09T15:46:24.994Z,4.70
2023-05-09T15:56:28.268Z,3.70
2023-05-09T16:06:33.591Z,3.63
2023-05-09T16:16:36.941Z,3.78
2023-05-09T16:26:41.532Z,4.30
2023-05-09T16:36:46.363Z,2.50
2023-05-09T16:46:50.869Z,2.10
2023-05-09T16:56:54.048Z,1.50
2023-05-09T17:06:58.540Z,1.95
2023-05-09T17:17:01.815Z,1.60
2023-05-09T17:27:07.121Z,1.95
2023-05-09T17:37:10.758Z,1.77
2023-05-09T17:47:15.416Z,1.40
2023-05-09T17:57:18.659Z,1.00
2023-05-09T18:07:23.187Z,1.35
2023-05-09T18:17:26.393Z,1.10
2023-05-09T18:27:30.875Z,1.10
2023-05-09T18:37:33.994Z,1.00
2023-05-09T18:47:38.818Z,1.00
2023-05-09T18:57:41.944Z,0.88
2023-05-09T19:07:46.594Z,0.70
2023-05-09T19:17:49.724Z,0.50
2023-05-09T19:27:54.281Z,0.50
2023-05-09T19:37:57.558Z,0.40
2023-05-09T19:48:02.191Z,0.40
2023-05-09T19:58:05.646Z,0.35
2023-05-09T20:08:10.450Z,0.40
2023-05-09T20:18:16.186Z,0.50
2023-05-09T20:28:21.936Z,0.60
2023-05-09T20:38:25.090Z,0.55
2023-05-09T20:48:29.635Z,0.95
2023-05-09T20:58:34.295Z,0.80
2023-05-09T21:08:40.608Z,0.50
2023-05-09T21:18:43.751Z,0.40
2023-05-09T21:28:48.424Z,0.40
2023-05-09T21:38:51.584Z,0.40
2023-05-09T21:48:56.141Z,0.30
2023-05-09T21:58:59.269Z,0.35
2023-05-09T22:09:04.263Z,0.50
2023-05-09T22:19:07.419Z,0.40
2023-05-09T22:29:11.960Z,0.40
2023-05-09T22:39:15.189Z,0.30
2023-05-09T22:49:19.749Z,0.30
2023-05-09T22:59:23.042Z,0.45
2023-05-09T23:09:28.334Z,0.50
2023-05-09T23:19:31.531Z,0.30
2023-05-09T23:29:36.155Z,0.47
2023-05-09T23:39:39.406Z,0.50
2023-05-09T23:49:44.688Z,0.60
2023-05-09T23:59:47.926Z,0.60
